createdAt,value
2018-07-06T00:02:02.114Z,78.40
2018-07-06T00:04:41.605Z,77.80
2018-07-06T00:07:21.047Z,78.16
2018-07-06T00:10:01.365Z,78.67
2018-07-06T00:12:40.984Z,78.55
2018-07-06T00:15:20.477Z,77.71
2018-07-06T00:18:00.062Z,77.47
2018-07-06T00:20:39.565Z,77.21
2018-07-06T00:23:19.126Z,77.84
2018-07-06T00:25:59.220Z,76.24
2018-07-06T00:28:38.973Z,76.95
2018-07-06T00:31:18.609Z,76.27
2018-07-06T00:33:58.045Z,76.11
2018-07-06T00:36:37.730Z,75.40
2018-07-06T00:39:17.321Z,74.84
2018-07-06T00:41:56.828Z,75.04
2018-07-06T00:44:36.217Z,74.65
2018-07-06T00:47:15.637Z,74.83
2018-07-06T00:49:55.260Z,74.40
2018-07-06T00:52:34.753Z,74.11
2018-07-06T00:55:14.265Z,74.81
2018-07-06T00:57:54.396Z,74.91
2018-07-06T01:00:34.054Z,74.72
2018-07-06T01:03:13.525Z,74.39
2018-07-06T01:05:53.165Z,73.82
2018-07-06T01:08:32.728Z,73.50
2018-07-06T01:11:12.310Z,73.91
2018-07-06T01:13:51.741Z,73.71
2018-07-06T01:16:31.257Z,73.49
2018-07-06T01:19:10.763Z,73.37
2018-07-06T01:21:50.172Z,72.87
2018-07-06T01:24:29.622Z,72.57
2018-07-06T01:27:09.145Z,73.03
2018-07-06T01:29:48.685Z,72.21
2018-07-06T01:32:28.717Z,72.68
2018-07-06T01:35:08.475Z,72.58
2018-07-06T01:37:47.962Z,71.79
2018-07-06T01:40:27.514Z,72.33
2018-07-06T01:43:06.941Z,72.11
2018-07-06T01:45:46.578Z,71.94
2018-07-06T01:48:26.086Z,71.20
2018-07-06T01:51:05.670Z,71.66
2018-07-06T01:53:45.069Z,71.39
2018-07-06T01:56:24.554Z,71.39
2018-07-06T01:59:03.989Z,71.38
2018-07-06T02:01:43.537Z,71.06
2018-07-06T02:04:22.947Z,70.60
2018-07-06T02:07:02.582Z,70.70
2018-07-06T02:09:42.055Z,70.48
2018-07-06T02:12:21.479Z,70.99
2018-07-06T02:15:01.113Z,70.52
2018-07-06T02:17:40.629Z,70.10
2018-07-06T02:20:20.106Z,69.91
2018-07-06T02:22:59.535Z,69.81
2018-07-06T02:25:39.201Z,70.49
2018-07-06T02:28:18.837Z,70.39
2018-07-06T02:30:58.263Z,70.55
2018-07-06T02:33:37.721Z,70.17
2018-07-06T02:36:17.286Z,70.08
2018-07-06T02:38:56.806Z,69.81
2018-07-06T02:41:36.287Z,69.69
2018-07-06T02:44:15.786Z,69.18
2018-07-06T02:46:55.492Z,69.55
2018-07-06T02:49:34.885Z,69.48
2018-07-06T02:52:15.729Z,69.31
2018-07-06T02:54:55.259Z,69.54
2018-07-06T02:57:34.836Z,69.52
2018-07-06T03:00:14.379Z,68.66
2018-07-06T03:02:54.047Z,69.37
2018-07-06T03:05:33.766Z,68.47
2018-07-06T03:08:13.425Z,68.73
2018-07-06T03:10:52.983Z,68.90
2018-07-06T03:13:32.347Z,69.03
2018-07-06T03:16:12.209Z,69.12
2018-07-06T03:18:51.743Z,68.44
2018-07-06T03:21:31.273Z,68.98
2018-07-06T03:24:10.692Z,68.96
2018-07-06T03:26:50.228Z,68.84
2018-07-06T03:29:29.752Z,68.86
2018-07-06T03:32:09.325Z,68.85
2018-07-06T03:34:48.742Z,69.08
2018-07-06T03:37:28.252Z,68.91
2018-07-06T03:40:07.858Z,68.69
2018-07-06T03:42:47.504Z,68.79
2018-07-06T03:45:26.916Z,68.66
2018-07-06T03:48:06.499Z,68.60
2018-07-06T03:50:46.097Z,68.32
2018-07-06T03:53:25.590Z,69.04
2018-07-06T03:56:04.994Z,68.66
2018-07-06T03:58:44.629Z,69.08
2018-07-06T04:01:24.126Z,69.43
2018-07-06T04:04:03.749Z,68.14
2018-07-06T04:06:43.285Z,69.13
2018-07-06T04:09:22.848Z,69.21
2018-07-06T04:12:02.386Z,68.55
2018-07-06T04:14:41.842Z,68.59
2018-07-06T04:17:21.393Z,68.51
2018-07-06T04:20:01.173Z,68.65
2018-07-06T04:22:40.684Z,68.67
2018-07-06T04:25:20.139Z,69.19
2018-07-06T04:27:59.546Z,68.57
2018-07-06T04:30:38.936Z,68.38
2018-07-06T04:33:18.434Z,68.86
2018-07-06T04:35:57.912Z,68.48
2018-07-06T04:38:37.434Z,68.28
2018-07-06T04:41:16.950Z,68.04
2018-07-06T04:43:56.391Z,67.93
2018-07-06T04:46:36.036Z,68.04
2018-07-06T04:49:15.528Z,67.49
2018-07-06T04:51:55.366Z,68.00
2018-07-06T04:54:34.825Z,67.80
2018-07-06T04:57:14.262Z,67.46
2018-07-06T04:59:53.750Z,67.05
2018-07-06T05:02:33.397Z,66.99
2018-07-06T05:05:12.933Z,66.55
2018-07-06T05:07:52.780Z,66.76
2018-07-06T05:10:32.345Z,66.29
2018-07-06T05:13:11.891Z,66.33
2018-07-06T05:15:51.546Z,66.31
2018-07-06T05:18:30.946Z,65.94
2018-07-06T05:21:10.398Z,65.67
2018-07-06T05:23:50.038Z,65.65
2018-07-06T05:26:29.465Z,65.49
2018-07-06T05:29:09.150Z,65.83
2018-07-06T05:31:48.545Z,64.90
2018-07-06T05:34:28.037Z,65.34
2018-07-06T05:37:07.703Z,65.01
2018-07-06T05:39:47.644Z,64.91
2018-07-06T05:42:27.093Z,65.05
2018-07-06T05:45:07.657Z,65.71
2018-07-06T05:47:47.082Z,65.10
2018-07-06T05:50:26.592Z,65.06
2018-07-06T05:53:06.104Z,63.88
2018-07-06T05:55:45.510Z,64.21
2018-07-06T05:58:25.089Z,63.51
2018-07-06T06:01:04.554Z,63.99
2018-07-06T06:03:44.066Z,63.88
2018-07-06T06:06:23.481Z,64.13
2018-07-06T06:08:50.821Z,63.62
2018-07-06T06:11:19.446Z,63.36
2018-07-06T06:13:48.089Z,63.08
2018-07-06T06:16:17.716Z,63.00
2018-07-06T06:18:46.523Z,62.61
2018-07-06T06:21:15.038Z,62.67
2018-07-06T06:23:43.651Z,62.54
2018-07-06T06:26:12.315Z,63.75
2018-07-06T06:28:40.921Z,63.49
2018-07-06T06:31:09.654Z,63.13
2018-07-06T06:33:38.388Z,62.85
2018-07-06T06:36:07.024Z,62.60
2018-07-06T06:38:35.779Z,62.99
2018-07-06T06:41:04.458Z,62.67
2018-07-06T06:43:33.084Z,62.91
2018-07-06T06:46:01.729Z,62.97
2018-07-06T06:48:30.515Z,62.88
2018-07-06T06:50:59.270Z,62.67
2018-07-06T06:53:27.938Z,63.02
2018-07-06T06:55:56.654Z,63.29
2018-07-06T06:58:25.343Z,62.55
2018-07-06T07:00:54.096Z,62.55
2018-07-06T07:03:24.395Z,62.29
2018-07-06T07:05:55.697Z,62.87
2018-07-06T07:08:27.391Z,62.85
2018-07-06T07:10:59.190Z,62.41
2018-07-06T07:13:30.031Z,62.42
2018-07-06T07:15:58.946Z,62.27
2018-07-06T07:18:29.948Z,62.38
2018-07-06T07:21:00.612Z,62.10
2018-07-06T07:23:31.333Z,61.08
2018-07-06T07:26:02.766Z,61.58
2018-07-06T07:28:32.066Z,61.26
2018-07-06T07:31:02.917Z,61.75
2018-07-06T07:33:32.974Z,61.37
2018-07-06T07:36:02.939Z,61.36
2018-07-06T07:38:32.045Z,61.48
2018-07-06T07:41:03.158Z,59.83
2018-07-06T07:43:32.055Z,59.68
2018-07-06T07:46:00.959Z,60.07
2018-07-06T07:48:29.698Z,60.33
2018-07-06T07:51:09.473Z,60.68
2018-07-06T07:53:49.761Z,60.23
2018-07-06T07:56:18.490Z,59.39
2018-07-06T07:58:47.640Z,59.70
2018-07-06T08:01:16.463Z,59.67
2018-07-06T08:03:45.099Z,59.87
2018-07-06T08:06:13.801Z,60.11
2018-07-06T08:08:42.593Z,60.51
2018-07-06T08:11:11.383Z,61.15
2018-07-06T08:13:40.142Z,61.30
2018-07-06T08:16:08.830Z,61.48
2018-07-06T08:18:37.523Z,63.02
2018-07-06T08:21:06.282Z,63.32
2018-07-06T08:23:34.913Z,63.62
2018-07-06T08:26:03.677Z,63.98
2018-07-06T08:28:32.317Z,64.56
2018-07-06T08:31:01.005Z,63.36
2018-07-06T08:33:32.406Z,63.81
2018-07-06T08:38:17.979Z,64.02
2018-07-06T08:40:46.686Z,64.50
2018-07-06T08:43:15.297Z,64.17
2018-07-06T08:45:44.010Z,63.46
2018-07-06T08:48:12.691Z,62.42
2018-07-06T08:50:41.336Z,62.77
2018-07-06T08:53:10.053Z,62.12
2018-07-06T08:55:38.732Z,62.11
2018-07-06T08:58:07.448Z,60.98
2018-07-06T09:00:36.191Z,59.69
2018-07-06T09:03:04.856Z,59.56
2018-07-06T09:05:33.494Z,59.53
2018-07-06T09:08:02.178Z,61.09
2018-07-06T09:10:30.823Z,59.73
2018-07-06T09:12:59.465Z,60.77
2018-07-06T09:15:28.138Z,62.60
2018-07-06T09:17:56.795Z,63.41
2018-07-06T09:20:25.431Z,63.43
2018-07-06T09:22:54.420Z,63.36
2018-07-06T09:25:23.650Z,62.99
2018-07-06T09:27:52.238Z,63.28
2018-07-06T09:30:20.881Z,62.14
2018-07-06T09:32:49.544Z,62.16
2018-07-06T09:35:18.190Z,63.43
2018-07-06T09:37:46.869Z,62.47
2018-07-06T09:40:15.533Z,63.28
2018-07-06T09:42:44.177Z,62.26
2018-07-06T09:45:13.495Z,62.05
2018-07-06T09:47:42.154Z,62.97
2018-07-06T09:50:10.852Z,64.25
2018-07-06T09:52:42.405Z,63.55
2018-07-06T10:08:01.093Z,66.69
2018-07-06T10:10:30.271Z,67.17
2018-07-06T10:12:58.931Z,68.15
2018-07-06T10:15:27.585Z,67.93
2018-07-06T10:17:56.246Z,69.14
2018-07-06T10:20:24.887Z,68.29
2018-07-06T10:22:53.630Z,69.60
2018-07-06T10:25:22.266Z,69.91
2018-07-06T10:27:59.754Z,70.21
2018-07-06T10:30:37.690Z,71.23
2018-07-06T10:33:06.994Z,72.04
2018-07-06T10:35:35.713Z,73.25
2018-07-06T10:38:04.440Z,73.07
2018-07-06T10:40:33.143Z,74.28
2018-07-06T10:43:01.923Z,73.86
2018-07-06T10:45:30.531Z,74.25
2018-07-06T10:47:59.229Z,73.49
2018-07-06T10:50:27.948Z,73.33
2018-07-06T10:52:56.585Z,73.27
2018-07-06T10:55:25.256Z,73.12
2018-07-06T10:57:53.959Z,72.60
2018-07-06T11:00:22.638Z,71.75
2018-07-06T11:02:51.367Z,72.10
2018-07-06T11:05:21.246Z,72.25
2018-07-06T11:07:49.956Z,72.24
2018-07-06T11:10:18.638Z,72.76
2018-07-06T11:12:47.353Z,71.48
2018-07-06T11:15:15.975Z,71.78
2018-07-06T11:17:44.672Z,72.05
2018-07-06T11:20:13.344Z,71.98
2018-07-06T11:22:42.044Z,72.46
2018-07-06T11:25:10.719Z,71.41
2018-07-06T11:27:39.350Z,71.39
2018-07-06T11:30:08.219Z,71.41
2018-07-06T11:32:36.987Z,71.02
2018-07-06T11:35:06.284Z,70.33
2018-07-06T11:37:35.491Z,70.52
2018-07-06T11:40:04.166Z,69.54
2018-07-06T11:42:32.866Z,68.89
2018-07-06T11:45:01.566Z,69.05
2018-07-06T11:47:30.246Z,69.12
2018-07-06T11:49:58.905Z,68.56
2018-07-06T11:52:27.564Z,68.62
2018-07-06T11:54:56.268Z,68.36
2018-07-06T11:57:25.052Z,69.09
2018-07-06T11:59:53.735Z,69.00
2018-07-06T12:02:23.255Z,68.16
2018-07-06T12:04:51.959Z,68.27
2018-07-06T12:07:20.624Z,68.39
2018-07-06T12:09:49.287Z,67.64
2018-07-06T12:12:17.910Z,66.26
2018-07-06T12:14:46.596Z,67.57
2018-07-06T12:17:15.335Z,68.24
2018-07-06T12:19:43.981Z,67.59
2018-07-06T12:22:12.703Z,67.40
2018-07-06T12:24:41.340Z,67.61
2018-07-06T12:29:37.494Z,66.03
2018-07-06T12:32:06.235Z,64.99
2018-07-06T12:34:34.898Z,65.00
2018-07-06T12:37:04.023Z,64.27
2018-07-06T12:39:35.190Z,62.78
2018-07-06T12:42:03.928Z,60.38
2018-07-06T12:44:34.866Z,60.46
2018-07-06T12:47:03.595Z,59.02
2018-07-06T12:49:32.221Z,60.96
2018-07-06T12:52:00.903Z,60.74
2018-07-06T12:54:29.589Z,59.58
2018-07-06T12:56:58.306Z,60.21
2018-07-06T12:59:26.948Z,59.30
2018-07-06T13:14:45.607Z,57.21
2018-07-06T13:17:14.286Z,56.02
2018-07-06T13:19:43.101Z,57.12
2018-07-06T13:22:12.118Z,57.95
2018-07-06T13:24:40.785Z,57.76
2018-07-06T13:27:09.475Z,58.14
2018-07-06T13:29:38.135Z,60.29
2018-07-06T13:32:06.880Z,60.48
2018-07-06T13:34:35.509Z,60.15
2018-07-06T13:37:04.207Z,58.51
2018-07-06T13:39:32.878Z,57.48
2018-07-06T13:42:01.540Z,55.08
2018-07-06T13:44:30.238Z,53.96
2018-07-06T13:46:58.893Z,52.83
2018-07-06T13:49:27.540Z,54.84
2018-07-06T13:51:56.259Z,54.68
2018-07-06T13:54:24.902Z,54.67
2018-07-06T13:56:53.544Z,54.60
2018-07-06T13:59:22.319Z,55.54
2018-07-06T14:01:50.870Z,56.36
2018-07-06T14:04:19.542Z,56.98
2018-07-06T14:06:48.922Z,57.70
2018-07-06T14:09:18.402Z,57.41
2018-07-06T14:11:48.434Z,57.38
2018-07-06T14:14:17.323Z,58.94
2018-07-06T14:16:46.794Z,57.87
2018-07-06T14:19:15.607Z,57.71
2018-07-06T14:21:47.961Z,56.52
2018-07-06T14:24:16.619Z,58.06
2018-07-06T14:26:45.263Z,57.05
2018-07-06T14:29:13.908Z,56.96
2018-07-06T14:31:42.602Z,57.16
2018-07-06T14:34:11.342Z,58.01
2018-07-06T14:36:40.111Z,55.32
2018-07-06T14:39:09.157Z,55.89
2018-07-06T14:41:38.203Z,55.60
2018-07-06T14:44:07.035Z,54.90
2018-07-06T14:46:37.351Z,54.21
2018-07-06T14:49:07.674Z,55.23
2018-07-06T14:51:36.322Z,55.97
2018-07-06T14:54:04.992Z,54.58
2018-07-06T14:56:33.641Z,54.06
2018-07-06T14:59:02.862Z,52.83
2018-07-06T15:01:31.531Z,51.46
2018-07-06T15:04:00.206Z,51.60
2018-07-06T15:06:28.980Z,51.41
2018-07-06T15:08:57.807Z,50.14
2018-07-06T15:11:26.448Z,51.20
2018-07-06T15:13:55.084Z,48.29
2018-07-06T15:16:23.786Z,49.96
2018-07-06T15:18:52.418Z,49.06
2018-07-06T15:21:21.087Z,47.48
2018-07-06T15:23:49.778Z,48.03
2018-07-06T15:26:18.474Z,50.28
2018-07-06T15:28:47.186Z,48.57
2018-07-06T15:31:15.860Z,47.80
2018-07-06T15:33:44.562Z,47.86
2018-07-06T15:36:13.880Z,46.17
2018-07-06T15:38:42.551Z,46.12
2018-07-06T15:41:11.235Z,45.52
2018-07-06T15:43:39.974Z,45.28
2018-07-06T15:46:08.899Z,44.37
2018-07-06T15:48:37.791Z,46.56
2018-07-06T15:51:06.517Z,48.85
2018-07-06T15:53:35.213Z,50.53
2018-07-06T15:56:03.865Z,49.71
2018-07-06T15:58:32.583Z,52.34
2018-07-06T16:01:01.539Z,53.79
2018-07-06T16:03:36.835Z,54.99
2018-07-06T16:06:05.664Z,55.68
2018-07-06T16:08:34.322Z,57.04
2018-07-06T16:11:03.007Z,56.35
2018-07-06T16:13:31.715Z,58.34
2018-07-06T16:16:00.403Z,58.58
2018-07-06T16:18:29.041Z,59.92
2018-07-06T16:20:57.692Z,60.71
2018-07-06T16:23:26.379Z,59.88
2018-07-06T16:25:55.040Z,60.06
2018-07-06T16:28:23.734Z,60.85
2018-07-06T16:30:52.405Z,60.65
2018-07-06T16:33:21.658Z,61.66
2018-07-06T16:35:50.306Z,61.49
2018-07-06T16:38:18.974Z,62.62
2018-07-06T16:40:47.645Z,63.61
2018-07-06T16:43:16.321Z,63.95
2018-07-06T16:45:44.985Z,64.84
2018-07-06T16:48:13.733Z,64.97
2018-07-06T16:50:43.726Z,65.43
2018-07-06T16:53:12.423Z,67.00
2018-07-06T16:55:41.096Z,68.11
2018-07-06T16:58:09.774Z,69.01
2018-07-06T17:00:38.488Z,69.26
2018-07-06T17:03:07.249Z,69.87
2018-07-06T17:05:35.941Z,70.65
2018-07-06T17:08:04.633Z,70.36
2018-07-06T17:10:34.717Z,70.78
2018-07-06T17:13:03.404Z,71.00
2018-07-06T17:15:32.051Z,71.12
2018-07-06T17:18:00.805Z,71.17
2018-07-06T17:20:29.472Z,71.48
2018-07-06T17:22:58.681Z,71.72
2018-07-06T17:25:27.327Z,72.13
2018-07-06T17:27:56.108Z,71.82
2018-07-06T17:30:24.755Z,71.99
2018-07-06T17:32:53.384Z,72.47
2018-07-06T17:35:22.590Z,72.29
2018-07-06T17:37:51.221Z,72.62
2018-07-06T17:40:19.896Z,73.18
2018-07-06T17:42:48.643Z,73.42
2018-07-06T17:45:17.318Z,73.81
2018-07-06T17:47:46.217Z,73.52
2018-07-06T17:50:14.940Z,73.31
2018-07-06T17:52:43.617Z,72.41
2018-07-06T17:55:12.360Z,71.76
2018-07-06T17:57:41.016Z,71.36
2018-07-06T18:00:09.710Z,71.91
2018-07-06T18:02:38.294Z,71.63
2018-07-06T18:05:06.925Z,72.05
2018-07-06T18:07:35.531Z,72.60
2018-07-06T18:10:04.167Z,72.76
2018-07-06T18:12:32.960Z,73.53
2018-07-06T18:15:01.684Z,73.43
2018-07-06T18:17:31.502Z,73.13
2018-07-06T18:20:00.565Z,73.37
2018-07-06T18:22:29.384Z,73.84
2018-07-06T18:24:58.100Z,73.36
2018-07-06T18:27:27.574Z,71.85
2018-07-06T18:29:57.735Z,70.66
2018-07-06T18:32:26.419Z,71.11
2018-07-06T18:34:55.119Z,70.45
2018-07-06T18:37:24.049Z,70.71
2018-07-06T18:39:52.699Z,71.66
2018-07-06T18:42:21.375Z,72.98
2018-07-06T18:44:50.129Z,73.40
2018-07-06T18:47:18.878Z,74.28
2018-07-06T18:49:47.528Z,75.35
2018-07-06T18:52:16.247Z,75.99
2018-07-06T18:54:44.926Z,76.81
2018-07-06T18:57:13.652Z,77.19
2018-07-06T18:59:42.343Z,77.44
2018-07-06T19:02:10.983Z,78.19
2018-07-06T19:04:39.640Z,79.51
2018-07-06T19:07:08.369Z,80.00
2018-07-06T19:09:37.227Z,80.31
2018-07-06T19:12:05.987Z,81.09
2018-07-06T19:14:34.754Z,81.61
2018-07-06T19:17:03.387Z,82.21
2018-07-06T19:19:32.022Z,82.64
2018-07-06T19:22:00.683Z,82.86
2018-07-06T19:24:29.351Z,83.03
2018-07-06T19:26:58.002Z,84.38
2018-07-06T19:29:26.690Z,84.32
2018-07-06T19:31:56.443Z,85.19
2018-07-06T19:34:25.151Z,85.32
2018-07-06T19:36:53.817Z,85.94
2018-07-06T19:39:22.577Z,86.50
2018-07-06T19:41:51.275Z,86.85
2018-07-06T19:44:20.068Z,87.19
2018-07-06T19:46:48.837Z,86.75
2018-07-06T19:49:17.488Z,87.12
2018-07-06T19:51:46.279Z,87.44
2018-07-06T19:54:15.130Z,87.58
2018-07-06T19:56:43.946Z,88.62
2018-07-06T19:59:12.630Z,89.13
2018-07-06T20:01:41.588Z,89.22
2018-07-06T20:04:10.309Z,89.55
2018-07-06T20:06:39.139Z,90.95
2018-07-06T20:09:08.208Z,90.55
2018-07-06T20:11:36.966Z,90.97
2018-07-06T20:14:05.659Z,90.94
2018-07-06T20:16:34.311Z,92.03
2018-07-06T20:19:03.005Z,92.11
2018-07-06T20:21:31.675Z,92.36
2018-07-06T20:24:00.350Z,91.78
2018-07-06T20:26:29.074Z,91.45
2018-07-06T20:28:57.769Z,91.04
2018-07-06T20:31:26.417Z,91.32
2018-07-06T20:33:55.045Z,92.25
2018-07-06T20:36:23.865Z,91.60
2018-07-06T20:38:52.481Z,92.18
2018-07-06T20:41:21.149Z,93.05
2018-07-06T20:43:49.843Z,93.40
2018-07-06T20:46:18.820Z,93.21
2018-07-06T20:48:47.505Z,92.79
2018-07-06T20:51:16.247Z,91.74
2018-07-06T20:53:44.845Z,92.55
2018-07-06T20:56:13.499Z,91.86
2018-07-06T20:58:42.138Z,90.76
2018-07-06T21:01:10.917Z,90.28
2018-07-06T21:03:39.602Z,91.21
2018-07-06T21:06:08.325Z,90.85
2018-07-06T21:08:36.957Z,91.04
2018-07-06T21:11:05.605Z,91.58
2018-07-06T21:13:34.303Z,92.23
2018-07-06T21:16:02.969Z,91.77
2018-07-06T21:18:31.611Z,92.40
2018-07-06T21:21:00.355Z,91.43
2018-07-06T21:23:29.089Z,90.64
2018-07-06T21:25:57.711Z,90.61
2018-07-06T21:28:26.365Z,90.77
2018-07-06T21:30:55.019Z,91.79
2018-07-06T21:33:27.013Z,91.88
2018-07-06T21:35:55.788Z,91.73
2018-07-06T21:38:24.399Z,90.56
2018-07-06T21:40:53.003Z,90.11
2018-07-06T21:43:21.642Z,89.53
2018-07-06T21:45:50.249Z,90.16
2018-07-06T21:48:18.866Z,89.99
2018-07-06T21:50:47.564Z,89.68
2018-07-06T21:53:16.193Z,90.71
2018-07-06T21:55:44.836Z,89.56
2018-07-06T21:58:13.488Z,89.93
2018-07-06T22:00:42.720Z,89.83
2018-07-06T22:03:12.326Z,89.75
2018-07-06T22:05:41.855Z,88.64
2018-07-06T22:08:10.505Z,88.51
2018-07-06T22:10:39.190Z,88.85
2018-07-06T22:13:08.181Z,87.73
2018-07-06T22:15:45.610Z,87.32
2018-07-06T22:18:15.727Z,87.51
2018-07-06T22:20:45.394Z,87.28
2018-07-06T22:23:14.482Z,86.94
2018-07-06T22:25:43.365Z,87.39
2018-07-06T22:28:12.118Z,87.01
2018-07-06T22:30:40.840Z,87.27
2018-07-06T22:33:09.515Z,88.01
2018-07-06T22:35:38.170Z,86.91
2018-07-06T22:38:06.849Z,87.50
2018-07-06T22:40:35.489Z,87.45
2018-07-06T22:43:04.122Z,86.77
2018-07-06T22:45:32.807Z,87.06
2018-07-06T22:48:02.516Z,86.87
2018-07-06T22:50:31.147Z,86.95
2018-07-06T22:52:59.829Z,85.77
2018-07-06T22:55:28.502Z,86.10
2018-07-06T22:57:57.168Z,86.36
2018-07-06T23:00:26.431Z,85.04
2018-07-06T23:03:05.158Z,85.20
2018-07-06T23:05:33.870Z,85.66
2018-07-06T23:08:02.504Z,85.71
2018-07-06T23:10:31.448Z,84.92
2018-07-06T23:13:00.088Z,84.81
2018-07-06T23:15:28.812Z,84.31
2018-07-06T23:17:57.467Z,84.66
2018-07-06T23:20:26.114Z,84.08
2018-07-06T23:23:13.822Z,84.06
2018-07-06T23:25:43.643Z,83.54
2018-07-06T23:28:12.367Z,84.02
2018-07-06T23:30:41.019Z,83.34
2018-07-06T23:33:10.279Z,83.56
2018-07-06T23:35:38.899Z,83.32
2018-07-06T23:38:07.648Z,82.98
2018-07-06T23:40:36.283Z,83.25
2018-07-06T23:43:04.908Z,83.10
2018-07-06T23:45:34.179Z,82.18
2018-07-06T23:48:02.868Z,82.69
2018-07-06T23:50:31.479Z,81.77
2018-07-06T23:53:00.135Z,81.95
2018-07-06T23:55:28.774Z,81.59
2018-07-06T23:57:58.465Z,81.91
